createdAt,value
2017-11-22T00:01:26.864Z,9.52
2017-11-22T00:03:53.404Z,9.57
2017-11-22T00:06:19.809Z,9.57
2017-11-22T00:08:46.189Z,9.53
2017-11-22T00:11:12.573Z,9.52
2017-11-22T00:13:38.925Z,9.49
2017-11-22T00:16:05.357Z,9.44
2017-11-22T00:18:31.690Z,9.45
2017-11-22T00:20:58.041Z,9.50
2017-11-22T00:23:24.414Z,9.55
2017-11-22T00:25:50.782Z,9.57
2017-11-22T00:28:17.137Z,9.59
2017-11-22T00:30:43.524Z,9.58
2017-11-22T00:33:09.983Z,9.57
2017-11-22T00:35:36.416Z,9.60
2017-11-22T00:38:02.849Z,9.60
2017-11-22T00:40:29.191Z,9.57
2017-11-22T00:42:55.544Z,9.53
2017-11-22T00:45:21.986Z,9.55
2017-11-22T00:47:48.353Z,9.60
2017-11-22T00:50:14.810Z,9.60
2017-11-22T00:52:41.345Z,9.55
2017-11-22T00:55:07.698Z,9.56
2017-11-22T00:57:34.108Z,9.57
2017-11-22T01:00:00.500Z,9.55
2017-11-22T01:02:26.874Z,9.54
2017-11-22T01:04:53.257Z,9.55
2017-11-22T01:07:19.666Z,9.52
2017-11-22T01:09:46.018Z,9.50
2017-11-22T01:12:12.373Z,9.49
2017-11-22T01:14:38.781Z,9.51
2017-11-22T01:17:05.162Z,9.51
2017-11-22T01:19:31.496Z,9.50
2017-11-22T01:21:57.910Z,9.59
2017-11-22T01:24:24.259Z,9.58
2017-11-22T01:26:50.609Z,9.56
2017-11-22T01:29:16.995Z,9.51
2017-11-22T01:31:43.353Z,9.43
2017-11-22T01:34:09.758Z,9.37
2017-11-22T01:36:36.273Z,9.42
2017-11-22T01:39:02.704Z,9.45
2017-11-22T01:41:29.086Z,9.45
2017-11-22T01:43:55.522Z,9.41
2017-11-22T01:46:21.901Z,9.39
2017-11-22T01:48:48.362Z,9.38
2017-11-22T01:51:14.797Z,9.37
2017-11-22T01:53:41.251Z,9.38
2017-11-22T01:56:07.645Z,9.38
2017-11-22T01:58:34.025Z,9.43
2017-11-22T02:01:00.397Z,9.43
2017-11-22T02:03:26.792Z,9.43
2017-11-22T02:05:53.189Z,9.43
2017-11-22T02:08:19.571Z,9.44
2017-11-22T02:10:45.930Z,9.44
2017-11-22T02:13:12.328Z,9.42
2017-11-22T02:15:38.669Z,9.39
2017-11-22T02:18:05.026Z,9.36
2017-11-22T02:20:31.440Z,9.37
2017-11-22T02:22:57.813Z,9.38
2017-11-22T02:25:24.170Z,9.36
2017-11-22T02:27:50.577Z,9.33
2017-11-22T02:30:16.928Z,9.43
2017-11-22T02:32:43.309Z,9.46
2017-11-22T02:35:09.774Z,9.49
2017-11-22T02:37:36.148Z,9.45
2017-11-22T02:40:02.574Z,9.40
2017-11-22T02:42:29.231Z,9.38
2017-11-22T02:44:55.665Z,9.36
2017-11-22T02:47:22.111Z,9.35
2017-11-22T02:49:48.574Z,9.34
2017-11-22T02:52:15.135Z,9.33
2017-11-22T02:54:41.566Z,9.32
2017-11-22T02:57:08.051Z,9.29
2017-11-22T02:59:34.454Z,9.27
2017-11-22T03:02:00.843Z,9.25
2017-11-22T03:04:27.229Z,9.16
2017-11-22T03:06:53.607Z,9.13
2017-11-22T03:09:20.014Z,9.13
2017-11-22T03:11:46.600Z,9.15
2017-11-22T03:14:12.961Z,9.15
2017-11-22T03:16:39.336Z,9.19
2017-11-22T03:19:05.899Z,9.17
2017-11-22T03:21:32.277Z,9.18
2017-11-22T03:23:58.766Z,9.22
2017-11-22T03:26:25.194Z,9.22
2017-11-22T03:28:51.574Z,9.26
2017-11-22T03:31:18.050Z,9.25
2017-11-22T03:33:44.660Z,9.16
2017-11-22T03:36:11.184Z,9.09
2017-11-22T03:38:37.617Z,9.03
2017-11-22T03:41:04.065Z,9.03
2017-11-22T03:43:30.538Z,8.95
2017-11-22T03:45:56.950Z,8.93
2017-11-22T03:48:23.558Z,8.92
2017-11-22T03:50:56.033Z,8.87
2017-11-22T03:53:28.569Z,8.89
2017-11-22T03:55:55.098Z,8.91
2017-11-22T03:58:21.631Z,8.87
2017-11-22T04:00:48.113Z,8.87
2017-11-22T04:03:16.482Z,8.82
2017-11-22T04:05:48.845Z,8.76
2017-11-22T04:08:17.329Z,8.77
2017-11-22T04:10:43.832Z,8.74
2017-11-22T04:13:10.269Z,8.70
2017-11-22T04:15:36.650Z,8.69
2017-11-22T04:18:03.053Z,8.68
2017-11-22T04:20:30.417Z,8.71
2017-11-22T04:22:56.798Z,8.71
2017-11-22T04:25:23.216Z,8.73
2017-11-22T04:27:49.641Z,8.78
2017-11-22T04:30:16.270Z,8.78
2017-11-22T04:32:42.858Z,8.80
2017-11-22T04:35:09.270Z,8.81
2017-11-22T04:37:35.658Z,8.79
2017-11-22T04:40:02.021Z,8.78
2017-11-22T04:42:28.429Z,8.75
2017-11-22T04:44:54.921Z,8.74
2017-11-22T04:47:21.377Z,8.74
2017-11-22T04:49:47.852Z,8.72
2017-11-22T04:52:14.423Z,8.73
2017-11-22T04:54:40.902Z,8.76
2017-11-22T04:57:07.612Z,8.73
2017-11-22T04:59:34.010Z,8.72
2017-11-22T05:02:00.512Z,8.78
2017-11-22T05:04:27.000Z,8.85
2017-11-22T05:06:53.534Z,8.89
2017-11-22T05:09:20.070Z,8.86
2017-11-22T05:11:46.502Z,8.82
2017-11-22T05:14:12.914Z,8.80
2017-11-22T05:16:39.473Z,8.84
2017-11-22T05:19:05.985Z,8.88
2017-11-22T05:21:32.501Z,8.87
2017-11-22T05:23:59.079Z,8.83
2017-11-22T05:26:25.515Z,8.82
2017-11-22T05:28:51.944Z,8.82
2017-11-22T05:31:18.337Z,8.87
2017-11-22T05:33:44.819Z,8.84
2017-11-22T05:36:11.194Z,8.87
2017-11-22T05:38:37.678Z,8.88
2017-11-22T05:41:04.127Z,8.87
2017-11-22T05:43:30.647Z,8.85
2017-11-22T05:45:57.018Z,8.84
2017-11-22T05:48:23.457Z,8.85
2017-11-22T05:50:49.977Z,8.87
2017-11-22T05:53:16.400Z,8.86
2017-11-22T05:55:42.937Z,8.90
2017-11-22T05:58:09.351Z,8.89
2017-11-22T06:00:41.909Z,8.93
2017-11-22T06:03:08.418Z,8.94
2017-11-22T06:05:35.022Z,8.94
2017-11-22T06:08:01.586Z,8.92
2017-11-22T06:10:28.158Z,8.92
2017-11-22T06:12:54.737Z,8.89
2017-11-22T06:15:21.528Z,8.91
2017-11-22T06:17:48.084Z,9.02
2017-11-22T06:20:14.620Z,9.08
2017-11-22T06:22:41.193Z,9.18
2017-11-22T06:25:07.740Z,9.19
2017-11-22T06:27:34.178Z,9.15
2017-11-22T06:30:00.593Z,9.10
2017-11-22T06:32:27.073Z,9.07
2017-11-22T06:34:53.563Z,9.08
2017-11-22T06:37:19.917Z,9.12
2017-11-22T06:39:46.414Z,9.09
2017-11-22T06:42:12.834Z,9.09
2017-11-22T06:44:39.194Z,9.12
2017-11-22T06:47:05.601Z,9.21
2017-11-22T06:49:32.194Z,9.27
2017-11-22T06:51:58.621Z,9.36
2017-11-22T06:54:25.296Z,9.49
2017-11-22T06:56:51.813Z,9.52
2017-11-22T06:59:18.317Z,9.56
2017-11-22T07:01:50.956Z,9.60
2017-11-22T07:04:17.342Z,9.66
2017-11-22T07:06:43.894Z,9.68
2017-11-22T07:09:10.397Z,9.70
2017-11-22T07:11:37.963Z,9.71
2017-11-22T07:14:04.452Z,9.73
2017-11-22T07:16:36.902Z,9.78
2017-11-22T07:19:03.378Z,9.84
2017-11-22T07:21:30.135Z,9.92
2017-11-22T07:23:56.641Z,9.98
2017-11-22T07:26:23.010Z,10.02
2017-11-22T07:28:49.401Z,10.08
2017-11-22T07:31:15.977Z,10.14
2017-11-22T07:33:42.458Z,10.18
2017-11-22T07:36:14.837Z,10.21
2017-11-22T07:38:41.294Z,10.26
2017-11-22T07:41:07.805Z,10.32
2017-11-22T07:43:34.270Z,10.34
2017-11-22T07:46:00.670Z,10.38
2017-11-22T07:48:27.128Z,10.42
2017-11-22T07:50:58.668Z,10.48
2017-11-22T07:53:25.291Z,10.53
2017-11-22T07:55:51.701Z,10.58
2017-11-22T07:58:21.105Z,10.60
2017-11-22T08:00:47.563Z,10.61
2017-11-22T08:03:14.789Z,10.72
2017-11-22T08:05:41.298Z,10.72
2017-11-22T08:08:07.721Z,10.77
2017-11-22T08:10:34.144Z,10.86
2017-11-22T08:13:00.741Z,10.89
2017-11-22T08:15:27.197Z,10.96
2017-11-22T08:17:53.621Z,11.08
2017-11-22T08:20:20.230Z,11.14
2017-11-22T08:22:46.690Z,11.09
2017-11-22T08:25:13.125Z,11.19
2017-11-22T08:27:39.689Z,11.25
2017-11-22T08:30:06.093Z,11.25
2017-11-22T08:32:32.893Z,11.29
2017-11-22T08:34:59.369Z,11.39
2017-11-22T08:37:25.717Z,11.47
2017-11-22T08:39:52.342Z,11.57
2017-11-22T08:42:18.980Z,11.63
2017-11-22T08:44:45.385Z,11.62
2017-11-22T08:47:11.840Z,11.66
2017-11-22T08:49:38.487Z,11.66
2017-11-22T08:52:05.001Z,11.73
2017-11-22T08:54:37.405Z,11.81
2017-11-22T08:57:09.979Z,11.80
2017-11-22T08:59:36.913Z,11.86
2017-11-22T09:02:03.549Z,11.92
2017-11-22T09:04:30.327Z,12.01
2017-11-22T09:06:56.798Z,12.05
2017-11-22T09:09:23.245Z,12.18
2017-11-22T09:11:49.694Z,12.21
2017-11-22T09:14:16.226Z,12.18
2017-11-22T09:16:42.742Z,12.30
2017-11-22T09:19:11.166Z,12.31
2017-11-22T09:21:37.617Z,12.37
2017-11-22T09:24:04.932Z,12.51
2017-11-22T09:26:31.367Z,12.54
2017-11-22T09:28:57.815Z,12.68
2017-11-22T09:31:30.353Z,12.76
2017-11-22T09:34:04.670Z,12.78
2017-11-22T09:36:31.418Z,12.88
2017-11-22T09:38:57.840Z,12.86
2017-11-22T09:41:24.233Z,12.97
2017-11-22T09:43:50.909Z,12.90
2017-11-22T09:46:17.574Z,12.92
2017-11-22T09:48:43.954Z,12.99
2017-11-22T09:51:10.593Z,13.11
2017-11-22T09:53:37.079Z,13.22
2017-11-22T09:56:03.461Z,13.28
2017-11-22T09:58:30.006Z,13.38
2017-11-22T10:00:56.425Z,13.41
2017-11-22T10:03:23.019Z,13.58
2017-11-22T10:05:49.554Z,13.44
2017-11-22T10:08:16.022Z,13.52
2017-11-22T10:10:42.520Z,13.55
2017-11-22T10:13:08.992Z,13.48
2017-11-22T10:15:35.371Z,13.35
2017-11-22T10:18:05.954Z,13.40
2017-11-22T10:20:32.552Z,13.43
2017-11-22T10:22:59.229Z,13.41
2017-11-22T10:25:25.858Z,13.46
2017-11-22T10:27:58.290Z,13.46
2017-11-22T10:30:29.857Z,13.45
2017-11-22T10:32:56.329Z,13.52
2017-11-22T10:35:22.852Z,13.53
2017-11-22T10:37:49.289Z,13.65
2017-11-22T10:40:15.717Z,13.63
2017-11-22T10:42:42.201Z,13.68
2017-11-22T10:45:08.660Z,13.79
2017-11-22T10:47:35.150Z,13.94
2017-11-22T10:50:02.017Z,14.09
2017-11-22T10:52:28.474Z,14.19
2017-11-22T10:54:54.881Z,14.27
2017-11-22T10:57:21.358Z,14.37
2017-11-22T10:59:47.826Z,14.51
2017-11-22T11:02:14.405Z,14.39
2017-11-22T11:04:40.921Z,14.30
2017-11-22T11:07:07.421Z,14.36
2017-11-22T11:09:33.838Z,14.37
2017-11-22T11:12:00.330Z,14.23
2017-11-22T11:14:26.726Z,14.23
2017-11-22T11:16:53.251Z,14.20
2017-11-22T11:19:19.690Z,14.26
2017-11-22T11:21:46.370Z,14.22
2017-11-22T11:24:12.865Z,14.32
2017-11-22T11:26:39.357Z,14.38
2017-11-22T11:29:05.802Z,14.35
2017-11-22T11:31:32.265Z,14.43
2017-11-22T11:33:58.682Z,14.42
2017-11-22T11:36:31.405Z,14.47
2017-11-22T11:38:57.990Z,14.54
2017-11-22T11:41:24.572Z,14.44
2017-11-22T11:43:51.127Z,14.49
2017-11-22T11:46:17.733Z,14.54
2017-11-22T11:48:44.281Z,14.46
2017-11-22T11:51:10.730Z,14.44
2017-11-22T11:53:37.154Z,14.46
2017-11-22T11:56:03.703Z,14.52
2017-11-22T11:58:30.189Z,14.49
2017-11-22T12:00:57.003Z,14.50
2017-11-22T12:03:23.433Z,14.54
2017-11-22T12:05:50.173Z,14.65
2017-11-22T12:08:16.614Z,14.57
2017-11-22T12:10:43.032Z,14.58
2017-11-22T12:13:09.780Z,14.54
2017-11-22T12:15:36.189Z,14.56
2017-11-22T12:18:02.689Z,14.59
2017-11-22T12:20:29.117Z,14.61
2017-11-22T12:22:56.510Z,14.63
2017-11-22T12:25:22.983Z,14.70
2017-11-22T12:27:49.423Z,14.69
2017-11-22T12:30:15.865Z,14.64
2017-11-22T12:32:42.350Z,14.69
2017-11-22T12:35:09.095Z,14.81
2017-11-22T12:37:35.513Z,14.67
2017-11-22T12:40:01.943Z,14.58
2017-11-22T12:42:32.204Z,14.71
2017-11-22T12:44:58.582Z,14.64
2017-11-22T12:47:25.178Z,14.65
2017-11-22T12:49:58.662Z,14.60
2017-11-22T12:52:25.134Z,14.58
2017-11-22T12:54:51.606Z,14.65
2017-11-22T12:57:18.046Z,14.57
2017-11-22T12:59:44.513Z,14.66
2017-11-22T13:02:10.909Z,14.56
2017-11-22T13:04:37.345Z,14.61
2017-11-22T13:07:03.959Z,14.67
2017-11-22T13:09:30.852Z,14.74
2017-11-22T13:11:58.383Z,14.72
2017-11-22T13:14:25.215Z,14.73
2017-11-22T13:16:51.674Z,14.76
2017-11-22T13:19:18.192Z,14.70
2017-11-22T13:21:44.669Z,14.73
2017-11-22T13:24:11.361Z,14.73
2017-11-22T13:26:37.794Z,14.80
2017-11-22T13:29:04.259Z,14.86
2017-11-22T13:31:30.773Z,14.84
2017-11-22T13:33:57.354Z,14.92
2017-11-22T13:36:24.007Z,14.93
2017-11-22T13:38:50.494Z,14.81
2017-11-22T13:41:16.958Z,14.88
2017-11-22T13:43:43.506Z,14.95
2017-11-22T13:46:12.910Z,14.96
2017-11-22T13:48:39.494Z,14.79
2017-11-22T13:51:06.002Z,14.73
2017-11-22T13:53:32.489Z,14.70
2017-11-22T13:55:59.122Z,14.65
2017-11-22T13:58:25.761Z,14.64
2017-11-22T14:00:52.360Z,14.56
2017-11-22T14:03:18.885Z,14.50
2017-11-22T14:05:45.474Z,14.45
2017-11-22T14:08:11.961Z,14.48
2017-11-22T14:10:38.517Z,14.41
2017-11-22T14:13:05.110Z,14.41
2017-11-22T14:15:31.741Z,14.35
2017-11-22T14:17:58.333Z,14.36
2017-11-22T14:20:25.005Z,14.33
2017-11-22T14:22:51.473Z,14.31
2017-11-22T14:25:18.090Z,14.35
2017-11-22T14:27:44.645Z,14.37
2017-11-22T14:30:11.274Z,14.34
2017-11-22T14:32:37.769Z,14.29
2017-11-22T14:35:04.338Z,14.32
2017-11-22T14:37:30.802Z,14.30
2017-11-22T14:39:57.480Z,14.23
2017-11-22T14:42:24.014Z,14.14
2017-11-22T14:44:50.576Z,14.08
2017-11-22T14:47:17.025Z,14.06
2017-11-22T14:49:43.578Z,13.92
2017-11-22T14:52:10.107Z,14.04
2017-11-22T14:54:36.729Z,14.06
2017-11-22T14:57:03.265Z,14.06
2017-11-22T14:59:29.866Z,14.03
2017-11-22T15:01:56.277Z,13.97
2017-11-22T15:04:22.839Z,13.92
2017-11-22T15:06:49.570Z,13.89
2017-11-22T15:09:16.018Z,13.83
2017-11-22T15:11:42.508Z,13.81
2017-11-22T15:14:08.995Z,13.78
2017-11-22T15:16:35.458Z,13.74
2017-11-22T15:19:02.607Z,13.69
2017-11-22T15:21:29.078Z,13.67
2017-11-22T15:23:55.605Z,13.66
2017-11-22T15:26:22.167Z,13.68
2017-11-22T15:28:48.806Z,13.70
2017-11-22T15:31:15.272Z,13.67
2017-11-22T15:33:43.740Z,13.64
2017-11-22T15:36:10.564Z,13.60
2017-11-22T15:38:39.825Z,13.61
2017-11-22T15:41:06.482Z,13.63
2017-11-22T15:43:32.977Z,13.62
2017-11-22T15:45:59.413Z,13.61
2017-11-22T15:48:26.006Z,13.62
2017-11-22T15:50:52.614Z,13.59
2017-11-22T15:53:19.093Z,13.52
2017-11-22T15:55:45.564Z,13.50
2017-11-22T15:58:11.973Z,13.50
2017-11-22T16:00:38.480Z,13.45
2017-11-22T16:03:04.997Z,13.45
2017-11-22T16:05:31.374Z,13.46
2017-11-22T16:07:57.894Z,13.43
2017-11-22T16:10:24.529Z,13.40
2017-11-22T16:12:50.905Z,13.38
2017-11-22T16:15:17.333Z,13.39
2017-11-22T16:17:43.791Z,13.34
2017-11-22T16:20:10.253Z,13.32
2017-11-22T16:22:36.721Z,13.29
2017-11-22T16:25:03.306Z,13.30
2017-11-22T16:27:30.612Z,13.25
2017-11-22T16:29:57.120Z,13.21
2017-11-22T16:32:23.576Z,13.20
2017-11-22T16:34:49.978Z,13.17
2017-11-22T16:37:16.412Z,13.19
2017-11-22T16:39:43.136Z,13.17
2017-11-22T16:42:09.566Z,13.17
2017-11-22T16:44:36.494Z,13.11
2017-11-22T16:47:03.939Z,13.06
2017-11-22T16:49:30.427Z,13.06
2017-11-22T16:51:56.910Z,13.06
2017-11-22T16:54:23.437Z,13.06
2017-11-22T16:56:49.967Z,13.06
2017-11-22T16:59:16.444Z,13.02
2017-11-22T17:01:42.943Z,13.06
2017-11-22T17:04:09.407Z,13.03
2017-11-22T17:06:36.842Z,12.98
2017-11-22T17:09:03.627Z,12.98
2017-11-22T17:11:30.097Z,12.99
2017-11-22T17:13:56.517Z,12.98
2017-11-22T17:16:23.001Z,12.98
2017-11-22T17:18:49.442Z,12.98
2017-11-22T17:21:15.876Z,12.99
2017-11-22T17:23:42.610Z,12.95
2017-11-22T17:26:09.022Z,12.97
2017-11-22T17:28:35.693Z,12.93
2017-11-22T17:31:02.961Z,12.88
2017-11-22T17:33:29.369Z,12.83
2017-11-22T17:35:55.804Z,12.77
2017-11-22T17:38:22.219Z,12.77
2017-11-22T17:40:48.666Z,12.73
2017-11-22T17:43:15.535Z,12.66
2017-11-22T17:45:41.970Z,12.55
2017-11-22T17:48:08.505Z,12.52
2017-11-22T17:50:35.073Z,12.46
2017-11-22T17:53:01.806Z,12.45
2017-11-22T17:55:28.270Z,12.42
2017-11-22T17:57:54.747Z,12.40
2017-11-22T18:00:21.342Z,12.41
2017-11-22T18:02:47.770Z,12.39
2017-11-22T18:05:14.262Z,12.37
2017-11-22T18:07:40.901Z,12.39
2017-11-22T18:10:07.413Z,12.35
2017-11-22T18:12:33.825Z,12.25
2017-11-22T18:15:00.270Z,12.20
2017-11-22T18:17:26.664Z,12.21
2017-11-22T18:19:53.076Z,12.20
2017-11-22T18:22:19.602Z,12.23
2017-11-22T18:24:47.029Z,12.20
2017-11-22T18:27:13.434Z,12.15
2017-11-22T18:29:39.950Z,12.07
2017-11-22T18:32:06.335Z,11.92
2017-11-22T18:34:32.770Z,11.92
2017-11-22T18:36:59.399Z,11.97
2017-11-22T18:39:25.842Z,11.92
2017-11-22T18:41:52.268Z,11.91
2017-11-22T18:44:18.742Z,11.91
2017-11-22T18:46:45.142Z,11.83
2017-11-22T18:49:12.525Z,11.90
2017-11-22T18:51:39.026Z,11.93
2017-11-22T18:54:05.425Z,11.90
2017-11-22T18:56:31.825Z,11.84
2017-11-22T18:58:58.390Z,11.75
2017-11-22T19:01:25.242Z,11.74
2017-11-22T19:03:51.730Z,11.68
2017-11-22T19:06:18.225Z,11.59
2017-11-22T19:08:44.655Z,11.56
2017-11-22T19:11:11.068Z,11.53
2017-11-22T19:13:37.487Z,11.45
2017-11-22T19:16:03.992Z,11.40
2017-11-22T19:18:30.389Z,11.39
2017-11-22T19:20:57.711Z,11.38
2017-11-22T19:23:24.086Z,11.39
2017-11-22T19:25:50.609Z,11.30
2017-11-22T19:28:17.120Z,11.31
2017-11-22T19:30:43.790Z,11.32
2017-11-22T19:33:10.261Z,11.32
2017-11-22T19:35:36.842Z,11.27
2017-11-22T19:38:03.363Z,11.24
2017-11-22T19:40:29.870Z,11.18
2017-11-22T19:42:58.376Z,11.10
2017-11-22T19:45:26.294Z,11.07
2017-11-22T19:47:53.718Z,11.13
2017-11-22T19:50:20.183Z,11.23
2017-11-22T19:52:47.586Z,11.25
2017-11-22T19:55:14.314Z,11.23
2017-11-22T19:57:40.803Z,11.17
2017-11-22T20:00:07.199Z,11.08
2017-11-22T20:02:33.665Z,11.07
2017-11-22T20:05:00.339Z,11.05
2017-11-22T20:07:38.777Z,11.03
2017-11-22T20:10:05.287Z,10.91
2017-11-22T20:12:31.710Z,10.84
2017-11-22T20:14:58.129Z,10.84
2017-11-22T20:17:24.526Z,10.99
2017-11-22T20:19:50.990Z,11.02
2017-11-22T20:22:17.372Z,10.99
2017-11-22T20:24:44.809Z,10.93
2017-11-22T20:27:11.175Z,10.82
2017-11-22T20:29:37.526Z,10.79
2017-11-22T20:32:05.030Z,10.73
2017-11-22T20:34:31.518Z,10.81
2017-11-22T20:36:57.897Z,10.72
2017-11-22T20:39:24.405Z,10.72
2017-11-22T20:41:54.596Z,10.75
2017-11-22T20:44:20.962Z,10.68
2017-11-22T20:46:47.395Z,10.70
2017-11-22T20:49:13.761Z,10.65
2017-11-22T20:51:40.133Z,10.75
2017-11-22T20:54:06.546Z,10.79
2017-11-22T20:56:32.901Z,10.78
2017-11-22T20:58:59.254Z,10.63
2017-11-22T21:01:25.713Z,10.59
2017-11-22T21:03:52.074Z,10.54
2017-11-22T21:06:18.418Z,10.45
2017-11-22T21:08:44.826Z,10.40
2017-11-22T21:11:11.343Z,10.39
2017-11-22T21:13:38.749Z,10.40
2017-11-22T21:16:05.234Z,10.33
2017-11-22T21:18:31.702Z,10.30
2017-11-22T21:20:58.098Z,10.31
2017-11-22T21:23:24.563Z,10.30
2017-11-22T21:25:51.069Z,10.23
2017-11-22T21:28:17.453Z,10.30
2017-11-22T21:30:43.841Z,10.23
2017-11-22T21:33:10.222Z,10.19
2017-11-22T21:35:36.649Z,10.15
2017-11-22T21:38:03.234Z,10.10
2017-11-22T21:40:29.620Z,10.03
2017-11-22T21:42:56.049Z,9.99
2017-11-22T21:45:22.475Z,10.02
2017-11-22T21:47:48.865Z,10.04
2017-11-22T21:50:15.265Z,10.05
2017-11-22T21:52:41.810Z,10.03
2017-11-22T21:55:08.246Z,10.04
2017-11-22T21:57:34.702Z,9.97
2017-11-22T22:00:01.094Z,9.87
2017-11-22T22:02:27.497Z,9.91
2017-11-22T22:04:53.933Z,9.80
2017-11-22T22:07:20.507Z,9.79
2017-11-22T22:09:46.847Z,9.78
2017-11-22T22:12:13.301Z,9.76
2017-11-22T22:14:39.710Z,9.77
2017-11-22T22:17:06.087Z,9.82
2017-11-22T22:19:32.524Z,9.82
2017-11-22T22:21:59.136Z,9.76
2017-11-22T22:24:25.493Z,9.72
2017-11-22T22:26:51.833Z,9.65
2017-11-22T22:29:18.334Z,9.61
2017-11-22T22:31:44.741Z,9.55
2017-11-22T22:34:11.121Z,9.40
2017-11-22T22:36:37.536Z,9.39
2017-11-22T22:39:04.097Z,9.21
2017-11-22T22:41:30.503Z,9.09
2017-11-22T22:43:56.959Z,9.15
2017-11-22T22:46:23.378Z,9.18
2017-11-22T22:48:49.833Z,9.05
2017-11-22T22:51:16.269Z,9.06
2017-11-22T22:53:42.746Z,9.07
2017-11-22T22:56:09.075Z,9.17
2017-11-22T22:58:35.562Z,9.28
2017-11-22T23:01:01.953Z,9.30
2017-11-22T23:03:28.399Z,9.32
2017-11-22T23:05:54.868Z,9.29
2017-11-22T23:08:21.237Z,9.30
2017-11-22T23:10:47.665Z,9.30
2017-11-22T23:13:14.205Z,9.40
2017-11-22T23:15:40.647Z,9.45
2017-11-22T23:18:06.998Z,9.47
2017-11-22T23:20:33.410Z,9.45
2017-11-22T23:22:59.877Z,9.31
2017-11-22T23:25:26.299Z,9.19
2017-11-22T23:27:52.713Z,9.20
2017-11-22T23:30:19.118Z,9.10
2017-11-22T23:32:45.655Z,9.09
2017-11-22T23:35:12.238Z,9.06
2017-11-22T23:37:38.773Z,9.00
2017-11-22T23:40:05.181Z,8.92
2017-11-22T23:42:31.613Z,8.88
2017-11-22T23:44:58.005Z,8.85
2017-11-22T23:47:24.466Z,8.82
2017-11-22T23:49:51.017Z,8.80
2017-11-22T23:52:17.477Z,8.76
2017-11-22T23:54:43.941Z,8.80
2017-11-22T23:57:10.418Z,8.83
2017-11-22T23:59:36.872Z,8.80
